createdAt,value
2018-08-27T00:00:15.719Z,94.30
2018-08-27T00:02:45.537Z,93.10
2018-08-27T00:05:15.095Z,93.60
2018-08-27T00:07:46.724Z,94.40
2018-08-27T00:10:17.576Z,94.30
2018-08-27T00:12:48.809Z,94.50
2018-08-27T00:15:22.079Z,95.50
2018-08-27T00:17:52.756Z,97.40
2018-08-27T00:20:22.752Z,97.30
2018-08-27T00:22:53.362Z,97.50
2018-08-27T00:25:23.613Z,98.40
2018-08-27T00:27:54.812Z,99.90
2018-08-27T00:30:26.977Z,99.00
2018-08-27T00:32:57.335Z,99.90
2018-08-27T00:35:31.732Z,99.90
2018-08-27T00:38:06.420Z,99.90
2018-08-27T00:40:36.478Z,99.90
2018-08-27T00:43:06.498Z,99.90
2018-08-27T00:45:39.365Z,99.90
2018-08-27T00:48:10.376Z,99.90
2018-08-27T00:50:40.324Z,99.90
2018-08-27T00:53:13.082Z,99.90
2018-08-27T00:55:43.600Z,99.90
2018-08-27T00:58:13.258Z,99.90
2018-08-27T01:00:42.775Z,99.90
2018-08-27T01:03:12.396Z,99.90
2018-08-27T01:05:42.114Z,99.90
2018-08-27T01:08:11.630Z,99.90
2018-08-27T01:10:41.332Z,99.90
2018-08-27T01:13:12.101Z,99.90
2018-08-27T01:15:41.568Z,99.90
2018-08-27T01:18:10.829Z,99.90
2018-08-27T01:20:40.589Z,99.90
2018-08-27T01:23:10.441Z,99.90
2018-08-27T01:25:40.777Z,99.90
2018-08-27T01:28:10.663Z,99.90
2018-08-27T01:30:40.071Z,99.90
2018-08-27T01:33:09.972Z,99.90
2018-08-27T01:35:40.196Z,99.90
2018-08-27T01:38:10.735Z,99.90
2018-08-27T01:40:40.638Z,99.90
2018-08-27T01:43:10.435Z,99.90
2018-08-27T01:45:40.022Z,99.90
2018-08-27T01:48:09.993Z,99.90
2018-08-27T01:50:39.703Z,99.90
2018-08-27T01:53:09.117Z,99.90
2018-08-27T01:55:38.473Z,99.90
2018-08-27T01:58:08.173Z,99.90
2018-08-27T02:00:38.716Z,99.90
2018-08-27T02:03:08.253Z,99.90
2018-08-27T02:05:38.216Z,99.90
2018-08-27T02:08:07.551Z,99.90
2018-08-27T02:10:37.171Z,99.90
2018-08-27T02:13:06.756Z,99.90
2018-08-27T02:15:36.158Z,99.90
2018-08-27T02:18:05.779Z,99.90
2018-08-27T02:20:35.470Z,99.90
2018-08-27T02:23:08.223Z,99.90
2018-08-27T02:25:37.633Z,99.90
2018-08-27T02:28:07.717Z,99.90
2018-08-27T02:30:37.504Z,99.90
2018-08-27T02:33:07.092Z,99.90
2018-08-27T02:35:38.021Z,99.90
2018-08-27T02:38:08.910Z,99.90
2018-08-27T02:40:38.918Z,99.90
2018-08-27T02:43:08.609Z,99.90
2018-08-27T02:45:38.012Z,99.90
2018-08-27T02:48:07.593Z,99.90
2018-08-27T02:50:37.916Z,99.90
2018-08-27T02:53:07.913Z,99.90
2018-08-27T02:55:37.212Z,99.90
2018-08-27T02:58:06.636Z,99.90
2018-08-27T03:00:35.973Z,99.90
2018-08-27T03:03:05.351Z,99.90
2018-08-27T03:05:34.901Z,99.90
2018-08-27T03:08:04.626Z,99.90
2018-08-27T03:10:34.131Z,99.90
2018-08-27T03:13:03.536Z,99.90
2018-08-27T03:15:33.204Z,99.90
2018-08-27T03:18:04.344Z,99.90
2018-08-27T03:20:33.982Z,99.90
2018-08-27T03:23:04.353Z,99.90
2018-08-27T03:25:33.706Z,99.90
2018-08-27T03:28:04.301Z,99.90
2018-08-27T03:30:33.628Z,99.90
2018-08-27T03:33:03.366Z,99.90
2018-08-27T03:35:33.038Z,99.90
2018-08-27T03:38:02.769Z,99.90
2018-08-27T03:40:32.594Z,99.90
2018-08-27T03:43:02.871Z,99.90
2018-08-27T03:45:42.496Z,99.90
2018-08-27T03:48:19.805Z,99.90
2018-08-27T03:50:51.826Z,99.90
2018-08-27T03:53:21.398Z,99.90
2018-08-27T03:55:51.043Z,99.90
2018-08-27T03:58:20.897Z,99.90
2018-08-27T04:00:50.043Z,99.90
2018-08-27T04:03:19.305Z,99.90
2018-08-27T04:05:48.546Z,99.90
2018-08-27T04:08:27.869Z,99.90
2018-08-27T04:10:59.704Z,99.90
2018-08-27T04:13:29.760Z,99.90
2018-08-27T04:15:59.157Z,99.90
2018-08-27T04:18:28.837Z,99.90
2018-08-27T04:20:59.913Z,99.90
2018-08-27T04:23:29.805Z,99.90
2018-08-27T04:25:59.034Z,99.90
2018-08-27T04:28:28.256Z,99.90
2018-08-27T04:30:57.848Z,99.90
2018-08-27T04:33:27.237Z,99.90
2018-08-27T04:35:59.039Z,99.90
2018-08-27T04:38:28.315Z,99.90
2018-08-27T04:40:57.665Z,99.90
2018-08-27T04:43:27.036Z,99.90
2018-08-27T04:45:56.547Z,99.90
2018-08-27T04:48:26.122Z,99.90
2018-08-27T04:50:55.464Z,99.90
2018-08-27T04:53:25.292Z,99.90
2018-08-27T04:55:54.577Z,99.90
2018-08-27T04:58:25.591Z,99.90
2018-08-27T05:00:55.759Z,99.90
2018-08-27T05:03:25.194Z,99.90
2018-08-27T05:05:54.784Z,99.90
2018-08-27T05:08:24.192Z,99.90
2018-08-27T05:10:53.781Z,99.90
2018-08-27T05:13:23.432Z,99.90
2018-08-27T05:15:52.942Z,99.90
2018-08-27T05:18:22.140Z,99.90
2018-08-27T05:20:52.998Z,99.90
2018-08-27T05:23:29.579Z,99.90
2018-08-27T05:25:59.424Z,99.90
2018-08-27T05:28:28.795Z,99.90
2018-08-27T05:30:58.332Z,99.90
2018-08-27T05:33:28.428Z,99.90
2018-08-27T05:35:57.748Z,99.90
2018-08-27T05:38:32.403Z,99.90
2018-08-27T05:41:02.815Z,99.90
2018-08-27T05:43:32.123Z,99.90
2018-08-27T05:46:02.326Z,99.90
2018-08-27T05:48:32.272Z,99.90
2018-08-27T05:51:01.802Z,99.90
2018-08-27T05:53:31.016Z,99.90
2018-08-27T05:56:00.522Z,99.90
2018-08-27T05:58:30.101Z,99.90
2018-08-27T06:00:59.437Z,99.90
2018-08-27T06:03:30.432Z,99.90
2018-08-27T06:06:06.377Z,99.90
2018-08-27T06:08:36.520Z,99.90
2018-08-27T06:11:06.623Z,99.90
2018-08-27T06:13:36.694Z,99.90
2018-08-27T06:16:06.201Z,99.90
2018-08-27T06:18:35.894Z,99.90
2018-08-27T06:21:06.793Z,99.90
2018-08-27T06:23:37.268Z,99.90
2018-08-27T06:26:10.919Z,99.90
2018-08-27T06:28:40.819Z,99.90
2018-08-27T06:31:11.317Z,99.90
2018-08-27T06:33:40.780Z,99.90
2018-08-27T06:36:11.159Z,99.90
2018-08-27T06:38:40.502Z,99.90
2018-08-27T06:41:11.184Z,99.90
2018-08-27T06:43:43.677Z,99.90
2018-08-27T06:46:14.517Z,99.90
2018-08-27T06:48:44.479Z,99.90
2018-08-27T06:51:15.178Z,99.90
2018-08-27T06:53:54.684Z,99.90
2018-08-27T06:56:27.092Z,99.90
2018-08-27T06:58:57.083Z,99.90
2018-08-27T07:01:27.348Z,99.90
2018-08-27T07:09:27.668Z,99.90
2018-08-27T07:11:57.825Z,99.90
2018-08-27T07:14:28.624Z,99.90
2018-08-27T07:17:01.216Z,99.90
2018-08-27T07:19:31.040Z,99.90
2018-08-27T07:22:00.909Z,99.90
2018-08-27T07:24:30.584Z,99.90
2018-08-27T07:27:00.436Z,99.90
2018-08-27T07:29:30.347Z,99.90
2018-08-27T07:32:00.929Z,99.90
2018-08-27T07:34:31.023Z,99.90
2018-08-27T07:37:01.069Z,99.90
2018-08-27T07:39:30.893Z,99.90
2018-08-27T07:42:01.319Z,99.90
2018-08-27T07:44:32.303Z,99.90
2018-08-27T07:47:02.872Z,99.90
2018-08-27T07:49:32.403Z,99.90
2018-08-27T07:52:03.955Z,99.90
2018-08-27T07:54:36.105Z,99.90
2018-08-27T07:57:05.735Z,99.90
2018-08-27T07:59:35.814Z,99.90
2018-08-27T08:02:06.374Z,99.90
2018-08-27T08:04:36.327Z,99.90
2018-08-27T08:07:05.649Z,99.90
2018-08-27T08:09:34.911Z,99.90
2018-08-27T08:12:13.426Z,99.90
2018-08-27T08:14:42.992Z,99.90
2018-08-27T08:17:12.442Z,99.90
2018-08-27T08:19:42.762Z,99.90
2018-08-27T08:22:13.809Z,99.90
2018-08-27T08:24:44.085Z,99.90
2018-08-27T08:27:14.034Z,99.90
2018-08-27T08:29:43.859Z,99.90
2018-08-27T08:32:14.784Z,99.90
2018-08-27T08:34:45.149Z,99.90
2018-08-27T08:37:14.657Z,99.90
2018-08-27T08:39:43.940Z,99.90
2018-08-27T08:42:15.960Z,99.90
2018-08-27T08:44:46.905Z,99.90
2018-08-27T08:47:17.322Z,99.90
2018-08-27T08:49:47.093Z,99.90
2018-08-27T08:52:16.593Z,99.90
2018-08-27T08:54:46.138Z,99.90
2018-08-27T08:57:16.305Z,99.90
2018-08-27T08:59:45.585Z,99.20
2018-08-27T09:02:16.203Z,97.40
2018-08-27T09:04:46.595Z,96.60
2018-08-27T09:07:16.520Z,95.00
2018-08-27T09:09:46.188Z,93.50
2018-08-27T09:12:15.557Z,93.60
2018-08-27T09:14:45.389Z,93.70
2018-08-27T09:17:15.021Z,91.90
2018-08-27T09:19:44.274Z,92.40
2018-08-27T09:22:15.872Z,94.40
2018-08-27T09:24:55.474Z,96.20
2018-08-27T09:27:29.753Z,96.20
2018-08-27T09:30:04.739Z,95.50
2018-08-27T09:32:44.921Z,96.20
2018-08-27T09:38:33.512Z,96.10
2018-08-27T09:41:03.284Z,96.60
2018-08-27T09:43:45.436Z,95.20
2018-08-27T09:46:19.346Z,94.10
2018-08-27T09:48:53.850Z,94.40
2018-08-27T09:51:23.634Z,96.20
2018-08-27T09:53:55.642Z,96.30
2018-08-27T09:56:29.189Z,95.70
2018-08-27T09:59:01.768Z,94.50
2018-08-27T10:01:39.752Z,92.90
2018-08-27T10:04:10.276Z,91.40
2018-08-27T10:06:45.787Z,88.60
2018-08-27T10:09:31.809Z,88.90
2018-08-27T10:12:03.470Z,91.50
2018-08-27T10:14:34.406Z,91.20
2018-08-27T10:17:04.252Z,87.30
2018-08-27T10:19:35.665Z,84.20
2018-08-27T10:22:06.186Z,84.60
2018-08-27T10:24:43.658Z,85.60
2018-08-27T10:27:14.193Z,87.60
2018-08-27T10:29:46.128Z,86.00
2018-08-27T10:32:18.226Z,84.60
2018-08-27T10:34:48.674Z,81.90
2018-08-27T10:37:19.376Z,80.10
2018-08-27T10:39:56.062Z,84.00
2018-08-27T10:42:26.679Z,82.70
2018-08-27T10:45:01.991Z,78.70
2018-08-27T10:47:31.932Z,76.30
2018-08-27T10:50:02.902Z,75.70
2018-08-27T10:52:36.656Z,75.30
2018-08-27T10:55:15.094Z,74.50
2018-08-27T10:57:55.646Z,74.10
2018-08-27T11:00:28.017Z,72.80
2018-08-27T11:03:02.297Z,69.60
2018-08-27T11:05:32.592Z,69.60
2018-08-27T11:08:06.592Z,64.40
2018-08-27T11:10:48.512Z,60.60
2018-08-27T11:13:34.241Z,60.80
2018-08-27T11:16:06.166Z,57.70
2018-08-27T11:18:37.670Z,56.30
2018-08-27T11:21:07.501Z,55.50
2018-08-27T11:23:44.322Z,54.40
2018-08-27T11:26:14.578Z,53.40
2018-08-27T11:28:45.761Z,52.90
2018-08-27T11:31:15.525Z,51.20
2018-08-27T11:33:47.271Z,51.50
2018-08-27T11:36:22.637Z,50.10
2018-08-27T11:38:52.328Z,50.70
2018-08-27T11:41:23.011Z,50.00
2018-08-27T11:44:05.645Z,49.90
2018-08-27T11:46:38.062Z,50.20
2018-08-27T11:49:13.625Z,49.70
2018-08-27T11:51:50.203Z,50.10
2018-08-27T11:54:23.365Z,47.50
2018-08-27T11:56:54.440Z,47.10
2018-08-27T11:59:26.209Z,46.30
2018-08-27T12:01:55.836Z,46.20
2018-08-27T12:04:25.877Z,47.10
2018-08-27T12:06:58.372Z,47.60
2018-08-27T12:09:32.049Z,47.30
2018-08-27T12:12:03.187Z,49.30
2018-08-27T12:14:45.897Z,51.30
2018-08-27T12:17:23.808Z,52.70
2018-08-27T12:19:54.947Z,52.90
2018-08-27T12:22:28.748Z,53.30
2018-08-27T12:24:59.547Z,50.10
2018-08-27T12:27:30.036Z,48.00
2018-08-27T12:30:07.799Z,47.70
2018-08-27T12:32:42.878Z,47.30
2018-08-27T12:35:17.056Z,48.10
2018-08-27T12:37:50.473Z,47.80
2018-08-27T12:40:24.181Z,47.60
2018-08-27T12:42:56.104Z,47.50
2018-08-27T12:45:32.408Z,48.80
2018-08-27T12:48:07.465Z,49.50
2018-08-27T12:50:46.628Z,48.70
2018-08-27T12:53:17.972Z,48.20
2018-08-27T12:55:53.565Z,47.30
2018-08-27T12:58:28.351Z,47.40
2018-08-27T13:04:24.186Z,49.60
2018-08-27T13:07:14.670Z,48.50
2018-08-27T13:09:50.386Z,50.30
2018-08-27T13:12:22.691Z,52.80
2018-08-27T13:15:01.793Z,54.80
2018-08-27T13:17:33.079Z,55.60
2018-08-27T13:20:10.348Z,56.10
2018-08-27T13:22:45.717Z,55.80
2018-08-27T13:25:20.440Z,52.50
2018-08-27T13:27:53.103Z,49.90
2018-08-27T13:30:23.853Z,47.80
2018-08-27T13:32:55.348Z,46.80
2018-08-27T13:35:26.028Z,46.00
2018-08-27T13:38:11.623Z,46.30
2018-08-27T13:40:42.297Z,45.80
2018-08-27T13:43:15.923Z,46.80
2018-08-27T13:45:49.398Z,48.80
2018-08-27T13:48:21.594Z,50.10
2018-08-27T13:50:51.180Z,50.40
2018-08-27T13:53:23.280Z,49.50
2018-08-27T13:55:52.861Z,50.00
2018-08-27T13:58:23.248Z,49.80
2018-08-27T14:00:56.217Z,49.20
2018-08-27T14:03:27.752Z,49.60
2018-08-27T14:05:57.594Z,49.60
2018-08-27T14:08:29.791Z,50.30
2018-08-27T14:11:00.470Z,49.70
2018-08-27T14:13:31.081Z,50.10
2018-08-27T14:16:01.195Z,50.90
2018-08-27T14:18:51.419Z,52.00
2018-08-27T14:21:39.533Z,53.50
2018-08-27T14:24:11.901Z,54.90
2018-08-27T14:26:41.788Z,54.60
2018-08-27T14:29:14.525Z,54.10
2018-08-27T14:31:45.547Z,53.80
2018-08-27T14:34:16.085Z,53.80
2018-08-27T14:36:46.680Z,53.30
2018-08-27T14:39:17.257Z,52.70
2018-08-27T14:41:47.302Z,50.60
2018-08-27T14:44:16.896Z,49.70
2018-08-27T14:46:47.088Z,49.50
2018-08-27T14:49:19.686Z,47.90
2018-08-27T14:51:52.561Z,49.00
2018-08-27T14:54:23.288Z,49.50
2018-08-27T14:56:54.118Z,50.60
2018-08-27T14:59:25.013Z,49.90
2018-08-27T15:01:55.495Z,49.70
2018-08-27T15:04:32.555Z,49.40
2018-08-27T15:07:04.549Z,49.20
2018-08-27T15:09:38.889Z,48.40
2018-08-27T15:12:09.899Z,48.40
2018-08-27T15:14:47.230Z,47.70
2018-08-27T15:17:27.898Z,48.00
2018-08-27T15:20:12.630Z,47.00
2018-08-27T15:22:50.160Z,46.80
2018-08-27T15:25:34.436Z,47.20
2018-08-27T15:28:19.674Z,47.50
2018-08-27T15:30:52.516Z,48.40
2018-08-27T15:36:04.444Z,49.10
2018-08-27T15:38:36.953Z,48.60
2018-08-27T15:41:11.224Z,49.20
2018-08-27T15:43:44.045Z,50.20
2018-08-27T15:46:22.529Z,49.90
2018-08-27T15:48:55.760Z,51.00
2018-08-27T15:51:29.836Z,52.10
2018-08-27T15:54:03.260Z,53.30
2018-08-27T15:56:33.859Z,53.90
2018-08-27T15:59:04.643Z,54.40
2018-08-27T16:01:37.402Z,55.00
2018-08-27T16:04:11.494Z,55.80
2018-08-27T16:06:42.166Z,56.00
2018-08-27T16:09:12.984Z,56.80
2018-08-27T16:11:49.546Z,57.50
2018-08-27T16:14:23.337Z,59.10
2018-08-27T16:16:54.960Z,60.50
2018-08-27T16:19:26.767Z,61.50
2018-08-27T16:22:00.229Z,62.60
2018-08-27T16:24:31.894Z,63.00
2018-08-27T16:27:05.755Z,63.60
2018-08-27T16:29:38.225Z,64.10
2018-08-27T16:32:08.746Z,64.20
2018-08-27T16:34:55.873Z,64.10
2018-08-27T16:37:48.996Z,64.30
2018-08-27T16:40:29.248Z,64.50
2018-08-27T16:43:06.583Z,63.60
2018-08-27T16:45:57.084Z,62.20
2018-08-27T16:49:33.221Z,60.70
2018-08-27T16:52:13.421Z,60.40
2018-08-27T16:54:48.174Z,61.60
2018-08-27T16:57:21.380Z,60.70
2018-08-27T16:59:53.776Z,60.60
2018-08-27T17:02:27.096Z,60.80
2018-08-27T17:05:03.061Z,61.60
2018-08-27T17:07:38.948Z,63.40
2018-08-27T17:10:16.787Z,64.80
2018-08-27T17:13:01.836Z,65.60
2018-08-27T17:21:16.497Z,65.30
2018-08-27T17:23:51.896Z,65.60
2018-08-27T18:32:47.867Z,65.60
2018-08-27T18:35:18.638Z,87.70
2018-08-27T18:38:00.028Z,88.40
2018-08-27T18:40:34.824Z,88.30
2018-08-27T18:43:07.376Z,88.20
2018-08-27T18:45:38.666Z,88.90
2018-08-27T18:48:14.098Z,90.10
2018-08-27T18:50:55.287Z,90.50
2018-08-27T18:53:31.483Z,91.00
2018-08-27T18:56:05.961Z,91.10
2018-08-27T18:58:54.481Z,91.20
2018-08-27T19:01:32.731Z,91.50
2018-08-27T19:04:08.588Z,91.80
2018-08-27T19:06:46.608Z,91.70
2018-08-27T19:09:22.655Z,92.10
2018-08-27T19:12:02.103Z,91.80
2018-08-27T19:14:40.106Z,92.20
2018-08-27T19:17:12.309Z,92.50
2018-08-27T19:19:44.090Z,92.40
2018-08-27T19:22:19.921Z,92.10
2018-08-27T19:24:58.866Z,92.10
2018-08-27T19:33:02.733Z,91.90
2018-08-27T19:35:33.735Z,91.90
2018-08-27T19:38:05.590Z,92.50
2018-08-27T19:40:39.099Z,92.40
2018-08-27T19:43:10.105Z,92.20
2018-08-27T19:45:40.852Z,91.90
2018-08-27T19:48:14.755Z,92.20
2018-08-27T19:50:45.768Z,92.50
2018-08-27T19:53:24.910Z,92.80
2018-08-27T19:55:55.639Z,92.20
2018-08-27T20:01:23.121Z,92.00
2018-08-27T20:04:03.323Z,91.40
2018-08-27T20:09:28.241Z,91.40
2018-08-27T20:11:59.412Z,91.10
2018-08-27T20:14:34.934Z,90.90
2018-08-27T20:17:08.585Z,90.80
2018-08-27T20:19:41.464Z,90.50
2018-08-27T20:22:16.413Z,90.70
2018-08-27T20:25:08.088Z,90.30
2018-08-27T20:27:44.918Z,89.70
2018-08-27T20:30:15.879Z,89.40
2018-08-27T20:32:48.536Z,89.50
2018-08-27T20:35:18.231Z,89.00
2018-08-27T20:37:50.202Z,88.60
2018-08-27T20:40:23.513Z,88.30
2018-08-27T20:43:05.232Z,88.20
2018-08-27T20:45:36.441Z,88.00
2018-08-27T20:48:07.842Z,88.20
2018-08-27T20:50:43.956Z,87.60
2018-08-27T20:53:27.006Z,87.50
2018-08-27T20:56:03.490Z,88.20
2018-08-27T20:58:40.363Z,88.90
2018-08-27T21:01:13.321Z,89.00
2018-08-27T21:03:43.106Z,89.10
2018-08-27T21:06:17.680Z,88.60
2018-08-27T21:08:56.185Z,88.20
2018-08-27T21:11:26.152Z,88.20
2018-08-27T21:14:03.275Z,88.30
2018-08-27T21:16:33.827Z,88.80
2018-08-27T21:19:06.111Z,88.30
2018-08-27T21:21:37.228Z,88.90
2018-08-27T21:24:09.616Z,87.90
2018-08-27T21:26:43.088Z,88.00
2018-08-27T21:29:16.720Z,88.50
2018-08-27T21:35:08.236Z,88.70
2018-08-27T21:37:44.724Z,89.50
2018-08-27T21:40:20.322Z,89.80
2018-08-27T21:42:56.411Z,90.40
2018-08-27T21:45:26.804Z,90.40
2018-08-27T21:47:59.781Z,90.90
2018-08-27T21:50:31.826Z,91.20
2018-08-27T21:53:15.291Z,91.80
2018-08-27T21:55:46.132Z,91.70
2018-08-27T21:58:17.746Z,91.90
2018-08-27T22:00:53.322Z,92.00
2018-08-27T22:03:29.486Z,92.20
2018-08-27T22:06:05.079Z,92.00
2018-08-27T22:08:35.121Z,92.10
2018-08-27T22:11:15.171Z,92.10
2018-08-27T22:14:30.523Z,92.30
2018-08-27T22:17:01.076Z,92.50
2018-08-27T22:19:31.505Z,92.70
2018-08-27T22:22:01.137Z,92.70
2018-08-27T22:24:32.195Z,93.10
2018-08-27T22:27:03.707Z,93.40
2018-08-27T22:29:40.612Z,93.20
2018-08-27T22:32:10.820Z,93.20
2018-08-27T22:34:43.931Z,93.30
2018-08-27T22:37:15.261Z,93.50
2018-08-27T22:39:45.857Z,93.50
2018-08-27T22:42:18.288Z,93.60
2018-08-27T22:44:54.568Z,93.70
2018-08-27T22:47:33.079Z,94.10
2018-08-27T22:50:03.566Z,94.20
2018-08-27T22:52:34.434Z,94.30
2018-08-27T22:55:05.833Z,94.50
2018-08-27T22:57:37.413Z,94.60
2018-08-27T23:00:07.504Z,94.60
2018-08-27T23:02:42.901Z,94.70
2018-08-27T23:05:13.921Z,94.80
2018-08-27T23:07:43.649Z,94.80
2018-08-27T23:10:50.227Z,94.90
2018-08-27T23:13:21.948Z,95.10
2018-08-27T23:16:03.456Z,95.20
2018-08-27T23:18:34.905Z,95.20
2018-08-27T23:21:08.317Z,95.30
2018-08-27T23:23:38.005Z,95.20
2018-08-27T23:26:09.066Z,95.40
2018-08-27T23:28:39.773Z,95.60
2018-08-27T23:31:09.590Z,95.80
2018-08-27T23:33:40.156Z,95.90
2018-08-27T23:36:10.114Z,95.90
2018-08-27T23:38:43.729Z,95.90
2018-08-27T23:41:14.063Z,96.00
2018-08-27T23:43:43.875Z,96.20
2018-08-27T23:46:13.687Z,96.30
2018-08-27T23:48:43.034Z,96.50
2018-08-27T23:51:12.542Z,96.70
2018-08-27T23:53:44.490Z,96.90
2018-08-27T23:56:14.552Z,97.10
2018-08-27T23:58:47.104Z,97.10
